createdAt,value
2023-01-29T00:01:23.671Z,3.38
2023-01-29T00:06:35.914Z,3.53
2023-01-29T00:11:51.401Z,2.90
2023-01-29T00:17:09.588Z,2.47
2023-01-29T00:22:24.756Z,2.40
2023-01-29T00:27:38.650Z,3.08
2023-01-29T00:33:00.990Z,2.63
2023-01-29T00:38:15.691Z,2.60
2023-01-29T00:43:46.703Z,2.88
2023-01-29T00:49:05.086Z,3.40
2023-01-29T00:54:21.496Z,2.60
2023-01-29T00:59:37.833Z,3.40
2023-01-29T01:04:56.295Z,3.33
2023-01-29T01:10:26.434Z,3.00
2023-01-29T01:15:44.326Z,2.85
2023-01-29T01:21:05.145Z,3.17
2023-01-29T01:26:21.475Z,4.10
2023-01-29T01:31:39.414Z,3.25
2023-01-29T01:36:59.805Z,3.83
2023-01-29T01:42:19.632Z,3.20
2023-01-29T01:47:45.039Z,4.30
2023-01-29T01:53:09.339Z,4.10
2023-01-29T01:58:24.178Z,4.13
2023-01-29T02:03:49.528Z,3.78
2023-01-29T02:09:21.283Z,4.00
2023-01-29T02:14:28.539Z,4.55
2023-01-29T02:20:05.252Z,4.43
2023-01-29T02:26:12.496Z,5.03
2023-01-29T02:36:53.012Z,4.32
2023-01-29T02:42:12.998Z,4.70
2023-01-29T02:47:34.974Z,4.80
2023-01-29T02:52:59.291Z,4.35
2023-01-29T02:58:23.540Z,4.13
2023-01-29T03:03:41.320Z,4.68
2023-01-29T03:08:58.550Z,3.85
2023-01-29T03:14:18.504Z,4.18
2023-01-29T03:19:40.226Z,4.25
2023-01-29T03:25:23.716Z,4.13
2023-01-29T03:30:57.623Z,4.03
2023-01-29T03:36:47.106Z,4.00
2023-01-29T03:42:06.560Z,3.90
2023-01-29T03:47:27.964Z,4.53
2023-01-29T03:52:53.293Z,3.65
2023-01-29T03:58:15.129Z,3.75
2023-01-29T04:03:37.590Z,4.13
2023-01-29T04:14:12.724Z,4.90
2023-01-29T04:19:28.744Z,4.47
2023-01-29T04:24:49.932Z,3.90
2023-01-29T04:30:18.712Z,3.53
2023-01-29T04:35:45.124Z,3.92
2023-01-29T04:41:09.464Z,4.13
2023-01-29T04:46:29.531Z,4.25
2023-01-29T04:51:53.302Z,4.32
2023-01-29T04:57:17.984Z,3.83
2023-01-29T05:02:34.740Z,4.63
2023-01-29T05:07:49.768Z,4.57
2023-01-29T05:13:08.790Z,4.97
2023-01-29T05:18:21.772Z,6.57
2023-01-29T05:23:38.297Z,5.97
2023-01-29T05:28:55.463Z,5.85
2023-01-29T05:34:09.664Z,5.47
2023-01-29T05:39:24.321Z,5.63
2023-01-29T05:44:41.601Z,5.35
2023-01-29T05:49:53.141Z,6.38
2023-01-29T05:55:02.449Z,5.43
2023-01-29T06:00:16.020Z,4.88
2023-01-29T06:05:25.869Z,5.40
2023-01-29T06:10:36.435Z,5.03
2023-01-29T06:15:50.710Z,6.15
2023-01-29T06:21:04.820Z,5.53
2023-01-29T06:26:19.097Z,6.72
2023-01-29T06:31:38.890Z,6.10
2023-01-29T06:36:54.881Z,6.50
2023-01-29T06:42:06.637Z,6.57
2023-01-29T06:47:20.579Z,6.13
2023-01-29T06:52:30.632Z,5.85
2023-01-29T06:57:42.666Z,6.80
2023-01-29T07:02:58.186Z,6.03
2023-01-29T07:08:11.517Z,6.32
2023-01-29T07:13:32.596Z,6.50
2023-01-29T07:18:41.633Z,8.10
2023-01-29T07:23:50.521Z,7.78
2023-01-29T07:29:03.355Z,7.45
2023-01-29T07:34:17.523Z,7.85
2023-01-29T07:39:32.975Z,7.90
2023-01-29T07:44:46.142Z,6.63
2023-01-29T07:50:03.730Z,7.30
2023-01-29T07:55:18.470Z,7.68
2023-01-29T08:00:32.659Z,7.60
2023-01-29T08:05:47.034Z,6.25
2023-01-29T08:11:02.742Z,6.75
2023-01-29T08:16:12.772Z,6.82
2023-01-29T08:21:25.002Z,7.30
2023-01-29T08:26:39.343Z,6.97
2023-01-29T08:31:54.545Z,5.97
2023-01-29T08:37:10.919Z,6.75
2023-01-29T08:42:24.622Z,6.45
2023-01-29T08:47:38.885Z,6.63
2023-01-29T08:52:53.794Z,6.68
2023-01-29T08:58:09.885Z,5.07
2023-01-29T09:03:20.402Z,6.55
2023-01-29T09:08:41.076Z,6.25
2023-01-29T09:13:56.686Z,6.57
2023-01-29T09:19:10.985Z,7.05
2023-01-29T09:24:28.269Z,9.90
2023-01-29T09:29:41.312Z,7.33
2023-01-29T09:34:49.045Z,7.38
2023-01-29T09:40:04.035Z,7.75
2023-01-29T09:45:25.856Z,7.03
2023-01-29T09:50:45.785Z,6.95
2023-01-29T09:56:08.209Z,7.22
2023-01-29T10:01:40.178Z,9.23
2023-01-29T10:07:19.995Z,7.40
2023-01-29T10:13:00.042Z,6.43
2023-01-29T10:18:56.776Z,6.55
2023-01-29T10:24:24.116Z,7.82
2023-01-29T10:29:41.468Z,6.95
2023-01-29T10:35:00.097Z,7.28
2023-01-29T10:40:29.068Z,5.97
2023-01-29T10:45:51.776Z,7.78
2023-01-29T10:51:13.609Z,6.90
2023-01-29T10:56:51.183Z,8.05
2023-01-29T11:02:16.043Z,6.88
2023-01-29T11:07:29.487Z,7.63
2023-01-29T11:12:48.515Z,7.63
2023-01-29T11:18:18.240Z,7.40
2023-01-29T11:23:33.793Z,6.32
2023-01-29T11:28:49.504Z,6.60
2023-01-29T11:34:21.436Z,6.80
2023-01-29T11:39:36.119Z,6.38
2023-01-29T11:44:53.251Z,7.40
2023-01-29T11:50:26.459Z,6.57
2023-01-29T11:55:51.201Z,6.78
2023-01-29T12:01:05.215Z,7.70
2023-01-29T12:06:27.835Z,7.32
2023-01-29T12:11:41.854Z,6.28
2023-01-29T12:17:01.424Z,7.00
2023-01-29T12:22:28.023Z,7.45
2023-01-29T12:27:55.335Z,7.95
2023-01-29T12:33:20.891Z,8.77
2023-01-29T12:38:39.951Z,7.93
2023-01-29T12:44:00.601Z,7.18
2023-01-29T12:54:42.709Z,7.53
2023-01-29T13:00:03.033Z,8.25
2023-01-29T13:05:26.894Z,8.75
2023-01-29T13:10:46.008Z,7.07
2023-01-29T13:16:01.362Z,7.70
2023-01-29T13:21:23.785Z,8.90
2023-01-29T13:26:50.704Z,7.82
2023-01-29T13:32:07.696Z,9.13
2023-01-29T13:37:29.895Z,9.82
2023-01-29T13:42:48.846Z,8.80
2023-01-29T13:48:26.495Z,9.77
2023-01-29T13:53:47.446Z,9.35
2023-01-29T13:59:04.911Z,9.60
2023-01-29T14:04:33.818Z,10.63
2023-01-29T14:10:20.941Z,10.23
2023-01-29T14:15:42.131Z,10.43
2023-01-29T14:21:04.362Z,10.23
2023-01-29T14:26:46.017Z,9.40
2023-01-29T14:32:00.530Z,11.32
2023-01-29T14:37:29.497Z,10.15
2023-01-29T14:42:43.842Z,10.02
2023-01-29T14:48:05.862Z,10.10
2023-01-29T14:53:30.910Z,9.32
2023-01-29T14:58:45.694Z,10.00
2023-01-29T15:03:57.733Z,9.93
2023-01-29T15:09:15.606Z,10.43
2023-01-29T15:14:35.069Z,12.73
2023-01-29T15:19:48.857Z,10.98
2023-01-29T15:25:16.686Z,8.32
2023-01-29T15:30:36.251Z,7.73
2023-01-29T15:41:20.928Z,8.20
2023-01-29T15:46:34.985Z,10.13
2023-01-29T15:51:45.771Z,8.90
2023-01-29T15:56:58.687Z,8.73
2023-01-29T16:02:42.794Z,9.70
2023-01-29T16:07:55.261Z,8.77
2023-01-29T16:13:05.941Z,9.18
2023-01-29T16:18:26.675Z,9.90
2023-01-29T16:23:46.991Z,9.57
2023-01-29T16:28:56.950Z,10.52
2023-01-29T16:34:18.609Z,9.60
2023-01-29T16:39:35.008Z,10.15
2023-01-29T16:44:48.881Z,11.00
2023-01-29T16:50:03.099Z,11.52
2023-01-29T16:55:29.366Z,9.43
2023-01-29T17:00:40.846Z,11.57
2023-01-29T17:05:51.847Z,11.25
2023-01-29T17:11:08.590Z,11.30
2023-01-29T17:16:30.557Z,11.10
2023-01-29T17:21:41.883Z,11.40
2023-01-29T17:32:02.982Z,11.77
2023-01-29T17:37:21.083Z,12.52
2023-01-29T17:42:37.691Z,12.43
2023-01-29T17:47:48.648Z,13.82
2023-01-29T17:52:58.291Z,13.38
2023-01-29T17:58:18.128Z,12.88
2023-01-29T18:03:28.372Z,14.20
2023-01-29T18:08:41.339Z,12.77
2023-01-29T18:13:52.983Z,13.57
2023-01-29T18:19:02.242Z,12.57
2023-01-29T18:24:11.034Z,12.90
2023-01-29T18:29:30.190Z,12.00
2023-01-29T18:34:39.200Z,13.93
2023-01-29T18:45:04.614Z,12.90
2023-01-29T18:50:16.590Z,13.07
2023-01-29T18:55:27.472Z,11.70
2023-01-29T19:00:41.924Z,13.10
2023-01-29T19:05:56.619Z,13.88
2023-01-29T19:11:08.886Z,12.18
2023-01-29T19:16:21.692Z,11.88
2023-01-29T19:21:36.792Z,12.18
2023-01-29T19:26:46.957Z,12.10
2023-01-29T19:31:57.810Z,11.90
2023-01-29T19:37:07.085Z,12.60
2023-01-29T19:42:17.621Z,11.70
2023-01-29T19:47:28.773Z,11.35
2023-01-29T19:52:52.790Z,13.60
2023-01-29T19:58:01.265Z,11.02
2023-01-29T20:03:11.956Z,13.45
2023-01-29T20:08:21.560Z,11.35
2023-01-29T20:13:31.550Z,13.00
2023-01-29T20:18:43.208Z,12.73
2023-01-29T20:23:54.374Z,12.75
2023-01-29T20:29:04.552Z,13.50
2023-01-29T20:34:16.383Z,12.35
2023-01-29T20:39:27.513Z,12.63
2023-01-29T20:44:38.809Z,11.57
2023-01-29T20:49:51.389Z,12.15
2023-01-29T20:55:01.424Z,10.10
2023-01-29T21:00:21.015Z,11.93
2023-01-29T21:05:31.779Z,11.15
2023-01-29T21:10:42.476Z,12.10
2023-01-29T21:15:54.913Z,12.13
2023-01-29T21:21:05.898Z,10.75
2023-01-29T21:26:15.649Z,11.88
2023-01-29T21:31:29.337Z,12.20
2023-01-29T21:36:39.981Z,13.02
2023-01-29T21:42:06.512Z,12.23
2023-01-29T21:47:17.998Z,10.93
2023-01-29T21:52:29.928Z,11.07
2023-01-29T21:57:36.535Z,12.27
2023-01-29T22:02:44.749Z,11.80
2023-01-29T22:13:02.808Z,12.98
2023-01-29T22:18:09.416Z,12.13
2023-01-29T22:23:17.699Z,12.88
2023-01-29T22:28:24.228Z,13.97
2023-01-29T22:33:32.021Z,14.85
2023-01-29T22:38:40.201Z,14.10
2023-01-29T22:43:47.028Z,13.30
2023-01-29T22:48:55.560Z,13.40
2023-01-29T22:54:03.865Z,14.68
2023-01-29T22:59:11.873Z,11.50
2023-01-29T23:04:21.917Z,10.50
2023-01-29T23:09:30.538Z,14.25
2023-01-29T23:14:37.017Z,14.27
2023-01-29T23:19:43.647Z,14.80
2023-01-29T23:24:51.950Z,14.07
2023-01-29T23:29:59.877Z,13.38
2023-01-29T23:35:07.799Z,11.67
2023-01-29T23:40:17.691Z,11.93
2023-01-29T23:45:25.127Z,12.50
2023-01-29T23:50:31.920Z,11.90
2023-01-29T23:55:40.707Z,10.82
